createdAt,value
2018-05-24T00:02:26.499Z,16.30
2018-05-24T00:04:54.049Z,16.30
2018-05-24T00:07:22.356Z,16.20
2018-05-24T00:09:49.865Z,16.20
2018-05-24T00:12:17.415Z,16.30
2018-05-24T00:14:45.048Z,16.40
2018-05-24T00:17:12.557Z,16.40
2018-05-24T00:19:40.865Z,16.20
2018-05-24T00:22:08.388Z,16.10
2018-05-24T00:24:36.679Z,16.00
2018-05-24T00:27:04.225Z,16.00
2018-05-24T00:29:32.503Z,16.20
2018-05-24T00:32:00.823Z,16.20
2018-05-24T00:34:28.479Z,16.10
2018-05-24T00:36:56.027Z,16.00
2018-05-24T00:39:23.809Z,15.90
2018-05-24T00:41:51.638Z,15.80
2018-05-24T00:44:19.161Z,15.50
2018-05-24T00:46:47.441Z,15.40
2018-05-24T00:49:15.163Z,15.30
2018-05-24T00:51:42.716Z,15.30
2018-05-24T00:54:10.284Z,15.50
2018-05-24T00:56:37.820Z,15.50
2018-05-24T00:59:05.351Z,15.60
2018-05-24T01:01:33.651Z,15.50
2018-05-24T01:04:01.324Z,15.40
2018-05-24T01:06:28.853Z,15.40
2018-05-24T01:08:57.143Z,15.10
2018-05-24T01:11:24.919Z,15.10
2018-05-24T01:13:52.447Z,15.00
2018-05-24T01:16:20.758Z,14.80
2018-05-24T01:18:48.319Z,14.70
2018-05-24T01:21:15.872Z,14.90
2018-05-24T01:23:43.446Z,15.00
2018-05-24T01:26:11.009Z,15.10
2018-05-24T01:28:38.557Z,15.00
2018-05-24T01:31:06.090Z,15.00
2018-05-24T01:33:33.689Z,15.10
2018-05-24T01:36:01.218Z,15.20
2018-05-24T01:38:28.801Z,15.20
2018-05-24T01:40:56.773Z,15.00
2018-05-24T01:43:24.295Z,15.00
2018-05-24T01:45:51.883Z,15.00
2018-05-24T01:48:19.553Z,15.00
2018-05-24T01:50:47.101Z,14.90
2018-05-24T01:53:14.662Z,14.80
2018-05-24T01:55:42.224Z,14.70
2018-05-24T01:58:09.734Z,14.40
2018-05-24T02:00:38.023Z,14.20
2018-05-24T02:03:05.577Z,14.10
2018-05-24T02:05:33.895Z,14.40
2018-05-24T02:08:01.423Z,14.30
2018-05-24T02:10:29.026Z,14.30
2018-05-24T02:12:56.568Z,14.40
2018-05-24T02:15:24.095Z,14.30
2018-05-24T02:17:51.670Z,14.40
2018-05-24T02:20:19.239Z,14.30
2018-05-24T02:22:46.767Z,14.20
2018-05-24T02:25:14.312Z,14.20
2018-05-24T02:27:42.623Z,14.30
2018-05-24T02:30:10.133Z,14.30
2018-05-24T02:32:37.761Z,14.50
2018-05-24T02:35:05.281Z,14.50
2018-05-24T02:37:32.879Z,14.50
2018-05-24T02:40:00.432Z,14.50
2018-05-24T02:42:27.980Z,14.40
2018-05-24T02:44:55.539Z,14.30
2018-05-24T02:47:23.077Z,14.30
2018-05-24T02:49:50.600Z,14.40
2018-05-24T02:52:18.140Z,14.40
2018-05-24T02:54:45.678Z,14.40
2018-05-24T02:57:13.188Z,14.40
2018-05-24T02:59:41.485Z,14.10
2018-05-24T03:02:09.046Z,14.10
2018-05-24T03:04:36.566Z,14.10
2018-05-24T03:07:04.077Z,14.00
2018-05-24T03:09:31.629Z,14.30
2018-05-24T03:11:59.146Z,14.30
2018-05-24T03:14:26.810Z,14.40
2018-05-24T03:16:54.329Z,14.60
2018-05-24T03:19:21.841Z,14.60
2018-05-24T03:21:50.112Z,14.70
2018-05-24T03:24:18.432Z,14.70
2018-05-24T03:26:45.956Z,14.70
2018-05-24T03:29:13.488Z,14.60
2018-05-24T03:31:41.824Z,14.30
2018-05-24T03:34:09.369Z,14.20
2018-05-24T03:36:36.905Z,14.20
2018-05-24T03:39:05.228Z,14.40
2018-05-24T03:41:32.764Z,14.30
2018-05-24T03:44:00.328Z,14.40
2018-05-24T03:46:27.886Z,14.30
2018-05-24T03:48:55.431Z,14.20
2018-05-24T03:51:22.956Z,14.20
2018-05-24T03:53:51.268Z,14.50
2018-05-24T03:56:18.848Z,14.40
2018-05-24T03:58:46.376Z,14.60
2018-05-24T04:01:25.915Z,14.50
2018-05-24T04:03:53.434Z,14.50
2018-05-24T04:06:20.971Z,14.50
2018-05-24T04:08:49.348Z,14.40
2018-05-24T04:11:16.888Z,14.50
2018-05-24T04:13:44.412Z,14.60
2018-05-24T04:16:12.729Z,14.50
2018-05-24T04:18:40.250Z,14.50
2018-05-24T04:21:08.539Z,14.50
2018-05-24T04:23:36.188Z,14.40
2018-05-24T04:26:03.793Z,14.50
2018-05-24T04:28:31.316Z,14.40
2018-05-24T04:30:58.900Z,14.60
2018-05-24T04:33:26.420Z,14.60
2018-05-24T04:35:54.717Z,14.60
2018-05-24T04:38:22.302Z,14.60
2018-05-24T04:40:49.844Z,14.80
2018-05-24T04:43:17.373Z,14.80
2018-05-24T04:45:45.703Z,14.80
2018-05-24T04:48:13.234Z,14.80
2018-05-24T04:50:40.741Z,14.80
2018-05-24T04:53:08.454Z,14.80
2018-05-24T04:55:35.983Z,14.80
2018-05-24T04:58:04.284Z,15.10
2018-05-24T05:00:31.831Z,15.10
2018-05-24T05:02:59.346Z,15.10
2018-05-24T05:05:26.853Z,15.10
2018-05-24T05:07:54.407Z,15.30
2018-05-24T05:10:21.937Z,15.50
2018-05-24T05:12:50.240Z,15.50
2018-05-24T05:15:17.798Z,15.40
2018-05-24T05:17:45.333Z,15.50
2018-05-24T05:20:13.634Z,15.60
2018-05-24T05:22:41.179Z,15.60
2018-05-24T05:25:09.485Z,15.90
2018-05-24T05:27:37.009Z,15.90
2018-05-24T05:30:05.307Z,16.20
2018-05-24T05:32:32.831Z,16.10
2018-05-24T05:35:01.132Z,16.00
2018-05-24T05:37:28.750Z,16.00
2018-05-24T05:39:56.252Z,16.00
2018-05-24T05:42:23.786Z,16.10
2018-05-24T05:44:52.194Z,16.30
2018-05-24T05:47:19.680Z,16.30
2018-05-24T05:49:47.198Z,16.40
2018-05-24T05:52:15.507Z,16.90
2018-05-24T05:54:43.029Z,16.80
2018-05-24T05:57:11.302Z,17.00
2018-05-24T05:59:39.612Z,17.00
2018-05-24T06:02:07.146Z,16.90
2018-05-24T06:04:35.257Z,17.10
2018-05-24T06:07:02.813Z,17.10
2018-05-24T06:09:30.352Z,17.10
2018-05-24T06:11:57.876Z,17.10
2018-05-24T06:14:26.312Z,17.10
2018-05-24T06:16:53.872Z,17.10
2018-05-24T06:19:21.421Z,17.10
2018-05-24T06:21:49.093Z,17.30
2018-05-24T06:24:16.618Z,17.40
2018-05-24T06:26:44.130Z,17.30
2018-05-24T06:29:11.693Z,17.50
2018-05-24T06:31:39.315Z,17.60
2018-05-24T06:34:06.863Z,17.70
2018-05-24T06:36:34.420Z,18.00
2018-05-24T06:39:02.090Z,18.20
2018-05-24T06:41:29.603Z,18.40
2018-05-24T06:43:57.921Z,18.50
2018-05-24T06:46:25.512Z,18.50
2018-05-24T06:48:53.154Z,18.50
2018-05-24T06:51:20.719Z,18.70
2018-05-24T06:53:48.307Z,19.00
2018-05-24T06:56:15.796Z,19.00
2018-05-24T06:58:43.337Z,19.10
2018-05-24T07:01:11.641Z,19.20
2018-05-24T07:03:39.167Z,19.10
2018-05-24T07:06:07.491Z,19.40
2018-05-24T07:08:35.019Z,19.30
2018-05-24T07:11:02.576Z,19.40
2018-05-24T07:13:30.114Z,19.20
2018-05-24T07:15:58.392Z,19.30
2018-05-24T07:18:27.104Z,19.40
2018-05-24T07:20:55.393Z,19.40
2018-05-24T07:23:22.967Z,19.30
2018-05-24T07:25:50.499Z,19.50
2018-05-24T07:28:18.041Z,19.60
2018-05-24T07:30:46.332Z,19.90
2018-05-24T07:33:13.922Z,19.80
2018-05-24T07:35:41.570Z,19.90
2018-05-24T07:38:09.135Z,20.00
2018-05-24T07:40:36.750Z,20.20
2018-05-24T07:43:04.233Z,20.50
2018-05-24T07:45:31.753Z,20.60
2018-05-24T07:47:59.301Z,20.70
2018-05-24T07:50:26.916Z,20.80
2018-05-24T07:52:54.440Z,20.70
2018-05-24T07:55:22.846Z,20.50
2018-05-24T07:57:50.361Z,20.40
2018-05-24T08:00:17.983Z,20.50
2018-05-24T08:02:45.545Z,20.50
2018-05-24T08:05:13.096Z,20.70
2018-05-24T08:07:40.621Z,20.60
2018-05-24T08:10:08.934Z,20.80
2018-05-24T08:12:36.450Z,20.80
2018-05-24T08:15:04.728Z,21.30
2018-05-24T08:17:33.047Z,21.60
2018-05-24T08:20:00.596Z,21.60
2018-05-24T08:22:28.129Z,21.80
2018-05-24T08:24:55.690Z,21.90
2018-05-24T08:27:23.197Z,22.00
2018-05-24T08:29:50.734Z,22.10
2018-05-24T08:32:18.282Z,22.20
2018-05-24T08:34:45.847Z,22.00
2018-05-24T08:37:13.414Z,22.10
2018-05-24T08:39:41.279Z,21.90
2018-05-24T08:42:09.043Z,22.00
2018-05-24T08:44:36.564Z,22.10
2018-05-24T08:47:04.258Z,22.20
2018-05-24T08:49:31.703Z,22.20
2018-05-24T08:51:59.277Z,22.40
2018-05-24T08:54:26.810Z,22.40
2018-05-24T08:56:54.393Z,22.50
2018-05-24T08:59:22.044Z,22.60
2018-05-24T09:01:49.600Z,22.60
2018-05-24T09:04:17.135Z,22.80
2018-05-24T09:06:45.443Z,23.00
2018-05-24T09:09:13.018Z,23.00
2018-05-24T09:11:40.552Z,23.10
2018-05-24T09:14:08.774Z,23.20
2018-05-24T09:16:36.882Z,23.30
2018-05-24T09:19:04.412Z,23.50
2018-05-24T09:21:33.209Z,23.90
2018-05-24T09:24:01.505Z,24.00
2018-05-24T09:26:29.089Z,24.00
2018-05-24T09:28:56.651Z,24.00
2018-05-24T09:31:24.204Z,24.00
2018-05-24T09:33:51.720Z,24.10
2018-05-24T09:36:20.140Z,24.10
2018-05-24T09:38:47.693Z,24.00
2018-05-24T09:41:15.264Z,24.30
2018-05-24T09:43:42.808Z,24.30
2018-05-24T09:46:10.391Z,24.30
2018-05-24T09:48:37.909Z,24.40
2018-05-24T09:51:05.434Z,24.60
2018-05-24T09:53:33.763Z,25.10
2018-05-24T09:56:01.337Z,25.00
2018-05-24T09:58:28.869Z,25.70
2018-05-24T10:00:56.446Z,25.90
2018-05-24T10:03:24.012Z,25.90
2018-05-24T10:05:51.528Z,25.70
2018-05-24T10:08:19.832Z,25.80
2018-05-24T10:10:47.364Z,25.70
2018-05-24T10:13:15.668Z,25.80
2018-05-24T10:15:43.344Z,25.70
2018-05-24T10:18:10.891Z,25.90
2018-05-24T10:20:38.424Z,26.00
2018-05-24T10:23:05.981Z,25.90
2018-05-24T10:25:33.501Z,25.60
2018-05-24T10:28:01.039Z,25.60
2018-05-24T10:30:28.686Z,25.60
2018-05-24T10:32:56.230Z,25.70
2018-05-24T10:35:23.741Z,25.70
2018-05-24T10:37:51.369Z,25.50
2018-05-24T10:40:18.927Z,25.60
2018-05-24T10:42:46.450Z,25.30
2018-05-24T10:45:14.077Z,25.30
2018-05-24T10:47:41.596Z,25.50
2018-05-24T10:50:09.134Z,25.70
2018-05-24T10:52:36.711Z,25.90
2018-05-24T10:55:04.300Z,26.30
2018-05-24T10:57:32.153Z,26.40
2018-05-24T10:59:59.737Z,26.40
2018-05-24T11:02:27.273Z,26.70
2018-05-24T11:04:54.798Z,26.90
2018-05-24T11:07:22.376Z,26.60
2018-05-24T11:09:49.902Z,26.70
2018-05-24T11:12:18.219Z,27.10
2018-05-24T11:14:45.778Z,27.10
2018-05-24T11:17:13.323Z,27.20
2018-05-24T11:19:40.850Z,27.30
2018-05-24T11:22:09.179Z,26.80
2018-05-24T11:24:36.704Z,26.70
2018-05-24T11:27:04.227Z,26.90
2018-05-24T11:29:32.559Z,26.10
2018-05-24T11:32:00.216Z,26.10
2018-05-24T11:34:27.692Z,25.90
2018-05-24T11:36:55.241Z,25.80
2018-05-24T11:39:22.763Z,25.90
2018-05-24T11:41:50.345Z,26.10
2018-05-24T11:44:17.914Z,26.10
2018-05-24T11:46:45.474Z,26.30
2018-05-24T11:49:13.013Z,26.40
2018-05-24T11:51:40.567Z,25.90
2018-05-24T11:54:08.086Z,25.70
2018-05-24T11:56:35.599Z,25.50
2018-05-24T11:59:03.161Z,25.10
2018-05-24T12:01:30.676Z,24.70
2018-05-24T12:03:58.972Z,23.80
2018-05-24T12:06:26.515Z,23.70
2018-05-24T12:08:54.789Z,23.30
2018-05-24T12:11:23.080Z,23.10
2018-05-24T12:13:50.637Z,23.00
2018-05-24T12:16:18.168Z,22.90
2018-05-24T12:18:46.470Z,22.80
2018-05-24T12:21:14.030Z,22.70
2018-05-24T12:23:41.553Z,22.70
2018-05-24T12:26:09.087Z,22.70
2018-05-24T12:28:36.638Z,22.80
2018-05-24T12:31:04.161Z,22.90
2018-05-24T12:33:31.686Z,23.30
2018-05-24T12:35:59.221Z,23.80
2018-05-24T12:38:26.741Z,24.00
2018-05-24T12:40:54.279Z,24.10
2018-05-24T12:43:22.603Z,24.00
2018-05-24T12:45:50.122Z,23.90
2018-05-24T12:48:17.636Z,24.00
2018-05-24T12:50:45.188Z,24.00
2018-05-24T12:53:12.710Z,24.10
2018-05-24T12:55:40.236Z,24.40
2018-05-24T12:58:08.568Z,25.40
2018-05-24T13:00:36.086Z,25.30
2018-05-24T13:03:04.378Z,26.40
2018-05-24T13:05:31.935Z,26.30
2018-05-24T13:07:59.536Z,26.60
2018-05-24T13:10:27.001Z,26.70
2018-05-24T13:12:54.565Z,26.70
2018-05-24T13:15:22.097Z,26.90
2018-05-24T13:17:49.612Z,26.80
2018-05-24T13:20:17.929Z,26.50
2018-05-24T13:22:45.457Z,26.40
2018-05-24T13:25:13.003Z,26.50
2018-05-24T13:27:41.423Z,25.90
2018-05-24T13:30:08.946Z,25.90
2018-05-24T13:32:36.490Z,25.80
2018-05-24T13:35:04.814Z,25.90
2018-05-24T13:37:32.380Z,25.80
2018-05-24T13:39:59.932Z,25.60
2018-05-24T13:42:27.599Z,25.30
2018-05-24T13:44:55.121Z,25.00
2018-05-24T13:47:22.651Z,24.70
2018-05-24T13:49:50.253Z,24.50
2018-05-24T13:52:17.788Z,24.30
2018-05-24T13:54:46.108Z,24.00
2018-05-24T13:57:13.668Z,24.00
2018-05-24T13:59:41.201Z,23.90
2018-05-24T14:02:08.720Z,24.20
2018-05-24T14:04:36.276Z,24.30
2018-05-24T14:07:03.806Z,24.40
2018-05-24T14:09:31.443Z,24.40
2018-05-24T14:11:58.984Z,24.30
2018-05-24T14:14:26.504Z,24.20
2018-05-24T14:16:54.030Z,24.10
2018-05-24T14:19:21.579Z,24.00
2018-05-24T14:21:49.089Z,23.80
2018-05-24T14:24:16.696Z,23.80
2018-05-24T14:26:44.255Z,23.70
2018-05-24T14:29:11.789Z,23.90
2018-05-24T14:31:39.378Z,23.90
2018-05-24T14:34:06.932Z,23.80
2018-05-24T14:36:34.449Z,23.80
2018-05-24T14:39:02.729Z,23.50
2018-05-24T14:41:31.056Z,23.60
2018-05-24T14:43:58.570Z,23.60
2018-05-24T14:46:26.867Z,24.00
2018-05-24T14:48:54.426Z,23.90
2018-05-24T14:51:21.943Z,24.00
2018-05-24T14:53:49.552Z,23.80
2018-05-24T14:56:17.127Z,23.70
2018-05-24T14:58:44.648Z,23.60
2018-05-24T15:01:12.185Z,23.00
2018-05-24T15:03:40.515Z,22.50
2018-05-24T15:06:08.030Z,22.50
2018-05-24T15:08:36.359Z,22.00
2018-05-24T15:11:03.906Z,22.00
2018-05-24T15:13:43.542Z,21.90
2018-05-24T15:16:11.096Z,21.70
2018-05-24T15:18:38.619Z,21.80
2018-05-24T15:21:06.920Z,21.60
2018-05-24T15:23:35.718Z,21.50
2018-05-24T15:26:03.240Z,21.50
2018-05-24T15:28:31.551Z,21.20
2018-05-24T15:30:59.101Z,21.20
2018-05-24T15:33:26.692Z,21.20
2018-05-24T15:35:54.198Z,21.30
2018-05-24T15:38:22.607Z,21.20
2018-05-24T15:40:50.130Z,21.10
2018-05-24T15:43:18.417Z,21.20
2018-05-24T15:45:46.005Z,21.10
2018-05-24T15:48:13.569Z,21.10
2018-05-24T15:50:41.113Z,21.00
2018-05-24T15:53:08.706Z,21.00
2018-05-24T15:55:36.438Z,20.80
2018-05-24T15:58:04.012Z,20.80
2018-05-24T16:00:31.746Z,20.80
2018-05-24T16:02:59.297Z,20.80
2018-05-24T16:05:26.826Z,20.80
2018-05-24T16:07:54.391Z,20.80
2018-05-24T16:10:22.098Z,20.70
2018-05-24T16:12:49.628Z,20.70
2018-05-24T16:15:18.041Z,20.30
2018-05-24T16:17:45.565Z,20.20
2018-05-24T16:20:13.874Z,19.90
2018-05-24T16:25:21.155Z,20.00
2018-05-24T16:27:48.800Z,20.00
2018-05-24T16:30:17.119Z,20.10
2018-05-24T16:32:44.684Z,20.00
2018-05-24T16:35:12.221Z,20.10
2018-05-24T16:37:39.737Z,20.20
2018-05-24T16:40:07.293Z,20.40
2018-05-24T16:42:34.840Z,20.60
2018-05-24T16:45:02.373Z,20.60
2018-05-24T16:47:29.944Z,20.50
2018-05-24T16:49:57.489Z,20.70
2018-05-24T16:52:25.010Z,20.70
2018-05-24T16:54:53.335Z,20.50
2018-05-24T16:57:20.876Z,20.50
2018-05-24T16:59:48.395Z,20.50
2018-05-24T17:02:17.382Z,20.50
2018-05-24T17:04:45.665Z,20.60
2018-05-24T17:07:13.975Z,20.50
2018-05-24T17:09:41.517Z,20.50
2018-05-24T17:12:09.029Z,20.40
2018-05-24T17:14:36.571Z,20.30
2018-05-24T17:17:04.127Z,20.10
2018-05-24T17:19:31.642Z,20.10
2018-05-24T17:21:59.163Z,20.10
2018-05-24T17:24:26.729Z,20.00
2018-05-24T17:26:54.370Z,20.00
2018-05-24T17:29:21.935Z,20.20
2018-05-24T17:31:49.505Z,20.20
2018-05-24T17:34:17.037Z,20.20
2018-05-24T17:36:44.558Z,20.10
2018-05-24T17:39:12.124Z,20.10
2018-05-24T17:41:39.659Z,20.10
2018-05-24T17:44:08.556Z,20.10
2018-05-24T17:46:36.148Z,20.10
2018-05-24T17:49:03.684Z,20.10
2018-05-24T17:51:31.261Z,20.20
2018-05-24T17:53:58.833Z,20.40
2018-05-24T17:56:26.362Z,20.40
2018-05-24T17:58:53.887Z,20.40
2018-05-24T18:01:21.598Z,20.30
2018-05-24T18:03:49.157Z,20.20
2018-05-24T18:06:16.683Z,20.30
2018-05-24T18:08:45.017Z,20.40
2018-05-24T18:11:12.551Z,20.40
2018-05-24T18:13:40.090Z,20.40
2018-05-24T18:16:07.660Z,20.30
2018-05-24T18:18:35.230Z,20.40
2018-05-24T18:21:02.750Z,20.20
2018-05-24T18:23:31.080Z,20.20
2018-05-24T18:25:58.626Z,20.20
2018-05-24T18:28:26.157Z,20.10
2018-05-24T18:30:53.749Z,20.20
2018-05-24T18:33:21.314Z,20.20
2018-05-24T18:35:48.856Z,20.10
2018-05-24T18:38:16.409Z,20.10
2018-05-24T18:40:43.924Z,20.10
2018-05-24T18:43:11.472Z,20.00
2018-05-24T18:45:39.051Z,20.00
2018-05-24T18:48:08.246Z,19.90
2018-05-24T18:50:36.637Z,19.90
2018-05-24T18:53:04.955Z,19.90
2018-05-24T18:55:32.492Z,19.90
2018-05-24T18:58:00.035Z,19.90
2018-05-24T19:00:27.581Z,19.80
2018-05-24T19:02:55.885Z,19.80
2018-05-24T19:05:23.420Z,19.70
2018-05-24T19:07:50.989Z,19.80
2018-05-24T19:10:18.587Z,19.80
2018-05-24T19:12:46.139Z,19.80
2018-05-24T19:15:13.720Z,19.80
2018-05-24T19:17:41.274Z,19.80
2018-05-24T19:20:08.804Z,19.80
2018-05-24T19:22:36.361Z,19.70
2018-05-24T19:25:03.941Z,19.70
2018-05-24T19:27:31.477Z,19.80
2018-05-24T19:29:59.150Z,19.70
2018-05-24T19:32:26.679Z,19.70
2018-05-24T19:34:54.219Z,19.70
2018-05-24T19:37:22.527Z,19.80
2018-05-24T19:39:50.091Z,19.70
2018-05-24T19:42:17.649Z,19.80
2018-05-24T19:44:45.200Z,19.80
2018-05-24T19:47:12.748Z,19.80
2018-05-24T19:49:40.269Z,19.90
2018-05-24T19:52:07.809Z,20.00
2018-05-24T19:54:35.360Z,19.90
2018-05-24T19:57:03.017Z,19.90
2018-05-24T19:59:30.556Z,19.80
2018-05-24T20:01:58.233Z,19.80
2018-05-24T20:04:25.796Z,19.40
2018-05-24T20:06:53.351Z,19.20
2018-05-24T20:09:20.906Z,18.90
2018-05-24T20:11:48.467Z,18.60
2018-05-24T20:14:16.004Z,18.50
2018-05-24T20:16:43.579Z,18.40
2018-05-24T20:19:11.108Z,18.30
2018-05-24T20:21:39.427Z,18.10
2018-05-24T20:24:07.427Z,18.10
2018-05-24T20:26:34.992Z,18.10
2018-05-24T20:29:03.322Z,18.00
2018-05-24T20:31:30.849Z,18.00
2018-05-24T20:33:59.138Z,17.90
2018-05-24T20:36:26.675Z,17.90
2018-05-24T20:38:54.982Z,17.90
2018-05-24T20:41:22.637Z,17.90
2018-05-24T20:43:50.229Z,18.00
2018-05-24T20:46:17.777Z,17.90
2018-05-24T20:48:45.332Z,18.00
2018-05-24T20:51:12.864Z,17.90
2018-05-24T20:53:40.446Z,17.90
2018-05-24T20:56:07.981Z,18.00
2018-05-24T20:58:35.599Z,17.90
2018-05-24T21:01:03.123Z,17.90
2018-05-24T21:03:30.663Z,18.00
2018-05-24T21:05:58.243Z,17.90
2018-05-24T21:08:25.788Z,17.80
2018-05-24T21:10:53.317Z,17.70
2018-05-24T21:13:21.629Z,17.70
2018-05-24T21:15:49.146Z,17.60
2018-05-24T21:18:17.480Z,17.60
2018-05-24T21:20:45.007Z,17.60
2018-05-24T21:23:12.539Z,17.60
2018-05-24T21:25:40.850Z,17.60
2018-05-24T21:28:08.629Z,17.50
2018-05-24T21:30:36.200Z,17.60
2018-05-24T21:33:03.721Z,17.70
2018-05-24T21:35:31.255Z,17.70
2018-05-24T21:37:59.621Z,17.60
2018-05-24T21:40:27.126Z,17.60
2018-05-24T21:42:54.671Z,17.60
2018-05-24T21:45:22.184Z,17.60
2018-05-24T21:47:49.808Z,17.50
2018-05-24T21:50:17.357Z,17.40
2018-05-24T21:52:44.936Z,17.30
2018-05-24T21:55:12.479Z,17.30
2018-05-24T21:57:40.024Z,17.30
2018-05-24T22:00:07.555Z,17.30
2018-05-24T22:02:35.884Z,17.50
2018-05-24T22:05:03.563Z,17.40
2018-05-24T22:07:31.105Z,17.50
2018-05-24T22:09:58.766Z,17.60
2018-05-24T22:12:26.296Z,17.60
2018-05-24T22:14:53.835Z,17.60
2018-05-24T22:17:22.157Z,17.60
2018-05-24T22:19:49.681Z,17.60
2018-05-24T22:22:17.993Z,17.60
2018-05-24T22:24:45.549Z,17.60
2018-05-24T22:27:13.079Z,17.70
2018-05-24T22:29:40.648Z,17.70
2018-05-24T22:32:08.178Z,17.70
2018-05-24T22:34:36.474Z,17.70
2018-05-24T22:37:04.025Z,17.70
2018-05-24T22:39:32.307Z,17.70
2018-05-24T22:41:59.871Z,17.70
2018-05-24T22:44:27.385Z,17.70
2018-05-24T22:46:55.002Z,17.70
2018-05-24T22:49:22.560Z,17.70
2018-05-24T22:51:50.130Z,17.70
2018-05-24T22:54:17.690Z,17.70
2018-05-24T22:56:45.248Z,17.60
2018-05-24T22:59:12.783Z,17.60
2018-05-24T23:01:40.313Z,17.70
2018-05-24T23:04:08.597Z,17.60
2018-05-24T23:06:36.922Z,17.60
2018-05-24T23:09:04.468Z,17.60
2018-05-24T23:11:31.995Z,17.60
2018-05-24T23:14:00.399Z,17.60
2018-05-24T23:16:27.919Z,17.50
2018-05-24T23:18:56.235Z,17.60
2018-05-24T23:21:23.756Z,17.60
2018-05-24T23:23:52.056Z,17.60
2018-05-24T23:26:19.605Z,17.60
2018-05-24T23:28:47.125Z,17.60
2018-05-24T23:31:14.703Z,17.60
2018-05-24T23:33:42.986Z,17.40
2018-05-24T23:36:11.284Z,17.40
2018-05-24T23:38:38.816Z,17.40
2018-05-24T23:41:07.125Z,17.30
2018-05-24T23:43:34.842Z,17.20
2018-05-24T23:46:03.191Z,17.30
2018-05-24T23:48:30.728Z,17.20
2018-05-24T23:50:58.704Z,17.30
2018-05-24T23:53:26.222Z,17.30
2018-05-24T23:55:54.554Z,17.20
2018-05-24T23:58:22.095Z,17.10
